createdAt,value
2022-12-20T00:03:32.934Z,8.00
2022-12-20T00:08:38.730Z,7.03
2022-12-20T00:13:43.777Z,7.38
2022-12-20T00:18:54.515Z,7.65
2022-12-20T00:24:00.427Z,5.95
2022-12-20T00:29:06.259Z,7.32
2022-12-20T00:34:14.031Z,8.05
2022-12-20T00:39:19.101Z,6.68
2022-12-20T00:44:24.177Z,5.00
2022-12-20T00:49:31.814Z,6.30
2022-12-20T00:54:37.281Z,5.53
2022-12-20T00:59:42.319Z,4.90
2022-12-20T01:04:51.942Z,5.95
2022-12-20T01:09:57.244Z,7.43
2022-12-20T01:15:02.347Z,4.13
2022-12-20T01:20:11.432Z,5.50
2022-12-20T01:25:16.435Z,6.85
2022-12-20T01:30:21.611Z,4.53
2022-12-20T01:35:30.039Z,6.40
2022-12-20T01:40:35.325Z,7.45
2022-12-20T01:45:40.416Z,5.13
2022-12-20T01:50:48.385Z,5.60
2022-12-20T01:55:53.620Z,6.30
2022-12-20T02:00:58.868Z,7.68
2022-12-20T02:06:19.023Z,5.45
2022-12-20T02:11:34.321Z,5.45
2022-12-20T02:16:45.670Z,6.78
2022-12-20T02:21:56.789Z,5.00
2022-12-20T02:27:23.754Z,6.40
2022-12-20T02:32:38.118Z,4.43
2022-12-20T02:37:52.161Z,4.28
2022-12-20T02:43:01.332Z,6.25
2022-12-20T02:48:11.502Z,4.25
2022-12-20T02:53:16.799Z,5.68
2022-12-20T02:58:28.993Z,4.53
2022-12-20T03:03:38.460Z,5.80
2022-12-20T03:08:43.466Z,5.70
2022-12-20T03:13:48.493Z,6.10
2022-12-20T03:18:56.158Z,6.35
2022-12-20T03:24:01.146Z,4.70
2022-12-20T03:29:06.306Z,7.28
2022-12-20T03:34:14.039Z,4.85
2022-12-20T03:39:19.359Z,6.38
2022-12-20T03:44:25.594Z,7.45
2022-12-20T03:49:33.239Z,6.32
2022-12-20T03:54:38.488Z,5.70
2022-12-20T03:59:43.627Z,6.68
2022-12-20T04:04:51.384Z,6.03
2022-12-20T04:09:56.364Z,7.80
2022-12-20T04:15:01.454Z,7.38
2022-12-20T04:20:21.708Z,7.15
2022-12-20T04:25:26.754Z,8.00
2022-12-20T04:30:31.790Z,5.53
2022-12-20T04:35:39.533Z,6.70
2022-12-20T04:40:45.117Z,6.97
2022-12-20T04:45:51.532Z,7.43
2022-12-20T04:50:59.850Z,5.25
2022-12-20T04:56:05.633Z,5.97
2022-12-20T05:01:10.758Z,6.47
2022-12-20T05:06:18.970Z,7.30
2022-12-20T05:11:23.996Z,6.45
2022-12-20T05:16:29.426Z,5.82
2022-12-20T05:21:49.574Z,7.10
2022-12-20T05:26:54.674Z,5.10
2022-12-20T05:31:59.913Z,6.07
2022-12-20T05:37:07.833Z,6.75
2022-12-20T05:42:12.911Z,6.15
2022-12-20T05:47:17.967Z,6.22
2022-12-20T05:52:25.664Z,5.22
2022-12-20T05:57:30.724Z,5.68
2022-12-20T06:02:35.918Z,6.53
2022-12-20T06:07:44.730Z,7.75
2022-12-20T06:12:50.181Z,6.97
2022-12-20T06:17:55.241Z,8.48
2022-12-20T06:23:02.988Z,10.70
2022-12-20T06:28:08.722Z,6.72
2022-12-20T06:33:13.770Z,8.43
2022-12-20T06:38:21.615Z,6.72
2022-12-20T06:43:26.667Z,6.95
2022-12-20T06:48:31.714Z,5.82
2022-12-20T06:53:39.388Z,6.00
2022-12-20T06:58:44.749Z,6.95
2022-12-20T07:03:50.118Z,6.07
2022-12-20T07:08:57.882Z,7.53
2022-12-20T07:14:02.990Z,6.20
2022-12-20T07:19:08.192Z,6.55
2022-12-20T07:24:16.404Z,4.90
2022-12-20T07:29:21.458Z,8.70
2022-12-20T07:34:28.366Z,9.50
2022-12-20T07:39:36.143Z,7.18
2022-12-20T07:44:42.115Z,6.47
2022-12-20T07:49:49.729Z,5.32
2022-12-20T07:55:00.282Z,5.95
2022-12-20T08:00:07.037Z,6.30
2022-12-20T08:05:13.112Z,7.45
2022-12-20T08:10:21.160Z,6.15
2022-12-20T08:15:26.746Z,6.13
2022-12-20T08:20:31.817Z,5.05
2022-12-20T08:25:41.993Z,5.28
2022-12-20T08:30:48.023Z,6.68
2022-12-20T08:36:06.875Z,6.18
2022-12-20T08:41:16.398Z,5.47
2022-12-20T09:49:06.738Z,6.10
2022-12-20T09:49:27.967Z,5.10
2022-12-20T09:55:15.244Z,5.10
2022-12-20T10:00:39.986Z,7.70
2022-12-20T10:06:12.583Z,5.72
2022-12-20T10:11:41.887Z,5.65
2022-12-20T10:17:04.396Z,4.53
2022-12-20T10:22:17.377Z,5.72
2022-12-20T10:27:34.519Z,7.82
2022-12-20T10:32:42.938Z,5.88
2022-12-20T10:38:09.536Z,6.13
2022-12-20T10:43:21.159Z,4.38
2022-12-20T10:48:33.521Z,5.82
2022-12-20T10:53:39.725Z,6.05
2022-12-20T10:58:45.533Z,4.75
2022-12-20T11:04:01.369Z,3.00
2022-12-20T11:09:28.479Z,4.88
2022-12-20T11:14:39.137Z,4.88
2022-12-20T11:20:15.314Z,4.82
2022-12-20T11:25:36.501Z,5.68
2022-12-20T11:30:46.853Z,4.97
2022-12-20T11:35:56.792Z,4.65
2022-12-20T11:41:17.685Z,5.30
2022-12-20T11:46:34.014Z,5.20
2022-12-20T11:51:44.924Z,4.93
2022-12-20T11:56:56.640Z,6.53
2022-12-20T12:02:08.906Z,4.25
2022-12-20T12:07:17.278Z,5.70
2022-12-20T12:12:28.646Z,4.70
2022-12-20T12:17:40.315Z,4.70
2022-12-20T12:22:46.652Z,4.38
2022-12-20T12:27:54.442Z,4.97
2022-12-20T12:33:03.682Z,5.55
2022-12-20T12:38:21.209Z,6.47
2022-12-20T12:43:48.589Z,5.15
2022-12-20T12:48:59.731Z,4.68
2022-12-20T12:54:20.533Z,6.07
2022-12-20T12:59:46.922Z,7.57
2022-12-20T13:05:00.405Z,7.22
2022-12-20T13:10:40.558Z,6.72
2022-12-20T13:21:22.953Z,3.22
2022-12-20T13:31:54.525Z,5.38
2022-12-20T13:37:02.588Z,5.22
2022-12-20T13:42:21.344Z,5.18
2022-12-20T13:47:40.868Z,5.28
2022-12-20T13:52:47.698Z,3.50
2022-12-20T13:57:53.577Z,4.53
2022-12-20T14:03:02.331Z,3.38
2022-12-20T14:13:26.693Z,6.18
2022-12-20T14:18:35.945Z,5.03
2022-12-20T14:23:46.206Z,4.78
2022-12-20T14:28:53.772Z,4.60
2022-12-20T14:34:11.504Z,4.97
2022-12-20T14:39:30.057Z,6.93
2022-12-20T14:44:36.801Z,7.82
2022-12-20T14:49:54.762Z,12.45
2022-12-20T14:55:08.431Z,10.70
2022-12-20T15:00:19.590Z,6.45
2022-12-20T15:05:58.121Z,5.40
2022-12-20T15:11:05.917Z,5.68
2022-12-20T15:16:19.312Z,5.90
2022-12-20T15:21:33.626Z,4.20
2022-12-20T15:26:41.375Z,5.35
2022-12-20T15:31:48.810Z,5.63
2022-12-20T15:36:57.749Z,5.07
2022-12-20T15:47:15.133Z,4.13
2022-12-20T15:52:25.632Z,5.60
2022-12-20T15:57:32.231Z,6.15
2022-12-20T16:02:39.475Z,6.70
2022-12-20T16:07:48.186Z,5.82
2022-12-20T16:12:54.141Z,5.88
2022-12-20T16:18:00.562Z,4.70
2022-12-20T16:23:09.915Z,4.93
2022-12-20T16:28:16.133Z,5.68
2022-12-20T16:33:24.392Z,5.60
2022-12-20T16:38:33.068Z,5.38
2022-12-20T16:43:40.198Z,6.82
2022-12-20T16:48:46.639Z,8.80
2022-12-20T16:54:17.967Z,7.78
2022-12-20T16:59:23.031Z,7.70
2022-12-20T17:04:31.974Z,10.27
2022-12-20T17:15:49.876Z,7.65
2022-12-20T17:20:56.128Z,9.80
2022-12-20T17:26:02.900Z,7.20
2022-12-20T17:31:30.964Z,5.78
2022-12-20T17:36:50.470Z,7.88
2022-12-20T17:42:11.424Z,11.07
2022-12-20T17:47:26.968Z,6.93
2022-12-20T17:52:33.937Z,9.02
2022-12-20T17:57:40.085Z,8.52
2022-12-20T18:02:54.971Z,10.57
2022-12-20T18:08:05.624Z,14.07
2022-12-20T18:19:24.261Z,12.25
2022-12-20T18:24:34.214Z,15.73
2022-12-20T18:30:25.320Z,9.05
2022-12-20T18:35:38.969Z,9.90
2022-12-20T18:41:01.838Z,8.77
2022-12-20T18:46:08.828Z,7.88
2022-12-20T18:51:23.087Z,7.95
2022-12-20T18:56:37.129Z,7.40
2022-12-20T19:01:51.459Z,10.32
2022-12-20T19:07:00.403Z,6.72
2022-12-20T19:12:09.623Z,7.80
2022-12-20T19:17:21.402Z,8.75
2022-12-20T19:22:31.137Z,7.15
2022-12-20T19:27:37.301Z,7.30
2022-12-20T19:32:43.233Z,6.70
2022-12-20T19:37:51.807Z,6.32
2022-12-20T19:43:03.124Z,5.85
2022-12-20T19:48:13.276Z,5.13
2022-12-20T19:53:21.883Z,4.50
2022-12-20T19:58:59.293Z,5.88
2022-12-20T20:04:08.876Z,5.45
2022-12-20T20:09:45.279Z,4.00
2022-12-20T20:14:53.368Z,6.63
2022-12-20T20:20:00.664Z,8.23
2022-12-20T20:25:10.827Z,8.23
2022-12-20T20:30:18.687Z,5.45
2022-12-20T20:35:24.870Z,6.30
2022-12-20T20:40:34.298Z,7.22
2022-12-20T20:45:40.295Z,6.53
2022-12-20T20:50:46.507Z,6.22
2022-12-20T20:55:55.520Z,5.47
2022-12-20T21:11:38.077Z,4.75
2022-12-20T21:16:45.145Z,4.57
2022-12-20T21:21:53.658Z,5.22
2022-12-20T21:27:02.517Z,5.13
2022-12-20T21:32:08.740Z,5.60
2022-12-20T21:37:15.141Z,10.65
2022-12-20T21:42:23.727Z,12.60
2022-12-20T21:47:30.245Z,10.00
2022-12-20T21:52:36.174Z,6.57
2022-12-20T21:57:45.576Z,6.95
2022-12-20T22:02:51.596Z,5.57
2022-12-20T22:08:06.591Z,4.40
2022-12-20T22:13:17.659Z,5.68
2022-12-20T22:18:26.882Z,5.50
2022-12-20T22:24:23.059Z,5.55
2022-12-20T22:29:35.311Z,5.97
2022-12-20T22:34:52.397Z,4.90
2022-12-20T22:40:07.785Z,3.95
2022-12-20T22:45:18.692Z,4.22
2022-12-20T22:50:31.181Z,4.88
2022-12-20T22:55:44.891Z,2.78
2022-12-20T23:01:11.949Z,4.93
2022-12-20T23:06:22.352Z,3.97
2022-12-20T23:11:46.225Z,3.15
2022-12-20T23:17:11.985Z,3.47
2022-12-20T23:22:41.126Z,3.58
2022-12-20T23:28:18.938Z,4.57
2022-12-20T23:33:28.186Z,4.57
2022-12-20T23:38:58.060Z,6.00
2022-12-20T23:44:08.911Z,5.30
2022-12-20T23:49:20.533Z,3.42
2022-12-20T23:54:26.294Z,3.72
2022-12-20T23:59:40.413Z,3.95
